Flight Track Log - Related Links

Times and Time Zones

All times are in EDT time to prevent confusion due to time zone crossing. See the SKW5258 flight status page for this flight to view local times or setup timezone preferences in your user account.

Time Position Orientation Groundspeed Altitude Reporting Facility
EDT Latitude Longitude Course Direction KTS MPH feet Rate Location/Type
Tue 05:24:05 PM 46.6950 -100.8789 207° Southwest 239 275 7,300  Level Minneapolis Center
Tue 05:25:00 PM 46.3715 -101.0024 203° Southwest  Level Estimated
Tue 05:25:07 PM 46.6231 -100.9183 201° Southwest 268 308 9,700  Level Minneapolis Center
Tue 05:26:00 PM 46.2673 -101.0516 198° South  Level FlightAware Approximate
Tue 05:26:09 PM 46.5503 -100.9606 202° Southwest 280 322 12,100  Level Minneapolis Center
Tue 05:27:00 PM 46.1670 -101.1152 202° Southwest  Level Estimated
Tue 05:27:11 PM 46.4700 -101.0058 201° Southwest 292 336 14,000  Level Minneapolis Center
Tue 05:28:14 PM 46.3856 -101.0478 199° South 307 353 15,400 1,680 Climbing Minneapolis Center
Tue 05:29:16 PM 46.2758 -101.1039 199° South 335 386 17,500 1,790 Climbing Minneapolis Center
Tue 05:30:18 PM 46.1842 -101.1525 200° South 348 400 19,100 1,403 Climbing Minneapolis Center
Tue 05:31:20 PM 46.0906 -101.2008 200° South 354 407 20,400 1,306 Climbing Minneapolis Center
Tue 05:32:22 PM 45.9961 -101.2481 199° South 358 412 21,800 1,258 Climbing Minneapolis Center
Tue 05:33:24 PM 45.9011 -101.2981 200° South 361 415 23,000 1,210 Climbing Minneapolis Center
Tue 05:34:26 PM 45.7836 -101.3592 200° South 369 425 24,300 1,161 Climbing Minneapolis Center
Tue 05:35:28 PM 45.6856 -101.4100 200° South 373 429 25,400 968 Climbing Minneapolis Center
Tue 05:36:30 PM 45.5886 -101.4583 199° South 372 428 26,300 726 Climbing Minneapolis Center
Tue 05:37:32 PM 45.4894 -101.5089 200° South 375 432 26,900 581 Climbing Minneapolis Center
Tue 05:38:34 PM 45.3889 -101.5592 199° South 379 436 27,500 1,016 Climbing Minneapolis Center
Tue 05:39:36 PM 45.2892 -101.6086 199° South 382 440 29,000 919 Climbing Minneapolis Center
Tue 05:40:38 PM 45.1742 -101.6675 200° South 372 428 29,400 435 Climbing Minneapolis Center
Tue 05:41:40 PM 45.0750 -101.7178 200° South 375 432 29,900 484 Climbing Minneapolis Center
Tue 05:42:42 PM 44.9761 -101.7658 199° South 376 433 30,400 672 Climbing Minneapolis Center
Tue 05:43:45 PM 44.8778 -101.8158 200° South 377 434 31,300 677 Climbing Minneapolis Center
Tue 05:44:46 PM 44.8000 -101.8539 199° South 373 429 31,800 339 Climbing Minneapolis Center
Tue 05:45:49 PM 44.6844 -101.9106 199° South 368 423 32,000 96 Climbing Minneapolis Center
Tue 05:46:51 PM 44.5658 -101.9681 199° South 374 430 32,000  Level Minneapolis Center
Tue 05:47:53 PM 44.4650 -102.0194 200° South 380 437 32,000  Level Minneapolis Center
Tue 05:48:55 PM 44.3639 -102.0789 203° Southwest 387 445 32,000  Level Minneapolis Center
Tue 05:49:57 PM 44.2633 -102.1408 204° Southwest 394 453 32,000  Level Minneapolis Center
Tue 05:50:59 PM 44.1600 -102.2011 203° Southwest 398 458 32,000  Level Minneapolis Center
Tue 05:52:13 PM 44.0556 -102.2617 203° Southwest 402 463 32,000  Level Minneapolis Center
Tue 05:53:15 PM 43.9075 -102.3472 203° Southwest 407 468 32,000  Level Minneapolis Center
Tue 05:54:23 PM 43.7997 -102.4100 203° Southwest 413 475 32,000  Level Denver Center
Tue 05:55:25 PM 43.6819 -102.4792 203° Southwest 412 474 32,000  Level Denver Center
Tue 05:56:27 PM 43.5808 -102.5378 203° Southwest 413 475 32,000  Level Denver Center
Tue 05:57:29 PM 43.4617 -102.6061 203° Southwest 414 476 32,000  Level Denver Center
Tue 05:58:31 PM 43.3608 -102.6622 202° Southwest 410 472 32,000  Level Denver Center
Tue 05:59:33 PM 43.2428 -102.7303 203° Southwest 410 472 32,000  Level Denver Center
Tue 06:00:36 PM 43.1403 -102.7875 202° Southwest 413 475 32,000  Level Denver Center
Tue 06:01:38 PM 43.0203 -102.8536 202° Southwest 416 479 32,000  Level Denver Center
Tue 06:02:40 PM 42.9183 -102.9122 203° Southwest 415 478 32,000  Level Denver Center
Tue 06:03:42 PM 42.7994 -102.9792 202° Southwest 414 476 32,000  Level Denver Center
Tue 06:04:44 PM 42.6958 -103.0369 202° Southwest 417 480 32,000  Level Denver Center
Tue 06:05:46 PM 42.5942 -103.0958 203° Southwest 416 479 32,000  Level Denver Center
Tue 06:07:00 PM 42.4733 -103.1614 202° Southwest 418 481 32,000  Level Denver Center
Tue 06:08:02 PM 42.3358 -103.2394 203° Southwest 417 480 32,000  Level Denver Center
Tue 06:09:04 PM 42.2319 -103.2958 202° Southwest 417 480 32,000  Level Denver Center
Tue 06:10:07 PM 42.1108 -103.3631 202° Southwest 420 483 32,000  Level Denver Center
Tue 06:11:09 PM 42.0064 -103.4192 202° Southwest 421 484 32,000  Level Denver Center
Tue 06:12:11 PM 41.9019 -103.4719 201° Southwest 419 482 32,000  Level Denver Center
Tue 06:13:13 PM 41.7689 -103.4844 184° South 428 493 32,000  Level Denver Center
Tue 06:14:15 PM 41.6542 -103.4878 181° South 431 496 32,000  Level Denver Center
Tue 06:15:17 PM 41.5203 -103.4911 181° South 430 495 32,000  Level Denver Center
Tue 06:16:19 PM 41.4053 -103.4944 181° South 430 495 32,000  Level Denver Center
Tue 06:17:33 PM 41.2717 -103.4981 181° South 428 493 32,000  Level Denver Center
Tue 06:18:35 PM 41.1378 -103.5006 181° South 429 494 32,000  Level Denver Center
Tue 06:19:37 PM 41.0233 -103.5044 181° South 429 494 32,000 -96 Level Denver Center
Tue 06:20:40 PM 40.8936 -103.5225 186° South 430 495 31,800 -816 Descending Denver Center
Tue 06:21:42 PM 40.7708 -103.5853 201° Southwest 395 455 30,300 -1,742 Descending Denver Center
Tue 06:22:44 PM 40.6736 -103.6333 201° Southwest 377 434 28,200 -2,081 Descending Denver Center
Tue 06:23:46 PM 40.5786 -103.6817 201° Southwest 367 422 26,000 -1,984 Descending Denver Center
Tue 06:24:48 PM 40.4928 -103.6247 153° Southeast 373 429 24,100 -1,500 Descending Denver Center
Tue 06:25:50 PM 40.5003 -103.5008 85° East 361 415 22,900 -726 Descending Denver Center
Tue 06:26:52 PM 40.5689 -103.4125 44° Northeast 345 397 22,600 -968 Descending Denver Center
Tue 06:27:54 PM 40.6603 -103.3383 32° Northeast 324 373 20,900 -1,548 Descending Denver Center
Tue 06:28:56 PM 40.7358 -103.3881 334° Northwest 308 354 19,400 -1,403 Descending Denver Center
Tue 06:29:58 PM 40.7411 -103.4928 274° West 290 334 18,000 -1,161 Descending Denver Center
Tue 06:31:00 PM 40.6844 -103.5678 225° Southwest 287 330 17,000 -484 Descending Denver Center
Tue 06:32:02 PM 40.6261 -103.6375 222° Southwest 283 326 17,000  Level Denver Center
Tue 06:33:04 PM 40.5628 -103.6956 215° Southwest 285 328 17,000  Level Denver Center
Tue 06:34:06 PM 40.5239 -103.5981 118° Southeast 304 350 17,000  Level Denver Center
Tue 06:35:08 PM 40.5853 -103.5217 43° Northeast 301 346 17,000  Level Denver Center
Tue 06:36:11 PM 40.6461 -103.4456 43° Northeast 304 350 17,000  Level Denver Center
Tue 06:37:25 PM 40.7217 -103.4136 18° North 314 361 17,000  Level Denver Center
Tue 06:38:27 PM 40.7244 -103.5142 272° West 288 331 17,000  Level Denver Center
Tue 06:39:29 PM 40.6678 -103.5867 224° Southwest 283 326 17,000  Level Denver Center
Tue 06:40:31 PM 40.5997 -103.6714 223° Southwest 282 325 17,000  Level Denver Center
Tue 06:41:33 PM 40.5292 -103.6725 181° South 297 342 17,000  Level Denver Center
Tue 06:42:35 PM 40.5439 -103.5778 78° East 302 348 17,000  Level Denver Center
Tue 06:43:37 PM 40.6056 -103.5000 44° Northeast 305 351 17,000  Level Denver Center
Tue 06:44:40 PM 40.6672 -103.4236 43° Northeast 305 351 17,000  Level Denver Center
Tue 06:45:42 PM 40.7478 -103.4561 343° North 288 331 17,000  Level Denver Center
Tue 06:46:44 PM 40.7169 -103.5464 246° West 295 339 17,000  Level Denver Center
Tue 06:47:46 PM 40.6556 -103.6258 224° Southwest 310 357 17,000  Level Denver Center
Tue 06:48:48 PM 40.5922 -103.7058 224° Southwest 315 362 17,000  Level Denver Center
Tue 06:49:50 PM 40.5286 -103.7861 224° Southwest 318 366 17,000  Level Denver Center
Tue 06:50:52 PM 40.4569 -103.8781 224° Southwest 322 371 17,000 -387 Level Denver Center
Tue 06:51:54 PM 40.3931 -103.9600 224° Southwest 310 357 16,200 -1,355 Descending Denver Center
Tue 06:52:56 PM 40.3183 -104.0547 224° Southwest 350 403 14,200 -1,548 Descending Denver Center
Tue 06:53:58 PM 40.2506 -104.1478 226° Southwest 353 406 13,000 -526 Descending Denver Center
Tue 06:55:13 PM 40.1683 -104.2586 226° Southwest 346 398 13,000  Level Denver Center
Tue 06:56:15 PM 40.0947 -104.3564 225° Southwest 349 402 13,000  Level Denver Center
Tue 06:57:16 PM 40.0333 -104.4500 229° Southwest 341 392 13,000 -645 Level Denver TRACON
Tue 06:58:16 PM 39.9833 -104.5500 237° Southwest 339 390 11,700 -952 Descending Denver TRACON
Tue 06:59:22 PM 39.9667 -104.6667 259° West 307 353 11,000 -345 Descending Denver TRACON
Tue 07:00:35 PM 39.9633 -104.7736 268° West 276 318 10,900 -800 Descending Denver Center
Tue 07:01:37 PM 39.9650 -104.8897 271° West 265 305 9,200 -1,161 Descending Denver Center
Tue 07:02:39 PM 39.9050 -104.9172 199° South 235 270 8,500 -968 Descending Denver Center
Tue 07:03:41 PM 39.8522 -104.9008 167° South 198 228 7,200 -816 Descending Denver Center
Tue 07:04:44 PM 39.8411 -104.8350 102° East 186 214 6,800 -576 Descending Denver Center
Tue 07:05:46 PM 39.8411 -104.7728 90° East 164 189 6,000 -726 Descending Denver Center
Tue 07:06:48 PM 39.8408 -104.7181 90° East 156 180 5,300 -677 Descending Denver Center

Login

Don't have an account? Register now (free) for customized features, flight alerts, and more!